Georgetown, DE

4:12 PM EDT on August 27, 2014 (GMT -0400)
Sussex County | Change Station
CLOSE
Current Station
Airport
Location: Georgetown,
Elevation: 52 ft
Nearby Weather Stations
Active Advisory: Air Quality Alert

Elev 52 ft 38.69 °N, 75.36 °W | Updated 18 minutes ago

Clear
Clear
85 °F
Feels Like 85 °F
N
7
Wind Variable Wind from South

Today
High -- | Low -- °F
--% Chance of Precip.
Yesterday
High -- | Low -- °F
Precip. -- in
6:26 AM 7:39 PM
Waxing Crescent, 5% visible
Pressure 29.95 in
Visibility 10.0 miles
Clouds Clear
Heat Index 85 °F
Dew Point 61 °F
Humidity 44%
Rainfall 0.00 in
Snow Depth Not available.
UV 6 out of 12
Pollen 9.80 out of 12
Air Quality Not available.
Flu Activity Not available.
METAR KGED 271954Z AUTO 18006KT 10SM CLR 29/16 A2995 RMK AO2 SLP141 T02940161

More Conditions Fewer Conditions

Pressure 29.95 in
Visibility 10.0 miles
Clouds Clear
Heat Index 85 °F
Dew Point 61 °F
Humidity 44%
Rainfall 0.00 in
Snow Depth Not available.
UV 6 out of 12
Pollen 9.80 out of 12
Air Quality Not available.
Flu Activity Not available.
METAR KGED 271954Z AUTO 18006KT 10SM CLR 29/16 A2995 RMK AO2 SLP141 T02940161

More Conditions Fewer Conditions

10-Day Weather Forecast

Almanac

Astronomy

Aug. 27, 2014 Rise Set
Actual Time 6:26 AM EDT 7:39 PM EDT
Civil Twilight 5:58 AM EDT 8:06 PM EDT
Nautical Twilight 5:25 AM EDT 8:39 PM EDT
Astronomical Twilight 4:51 AM EDT 9:13 PM EDT
Moon 8:18 AM EDT 8:32 PM EDT
Length of Visible Light 14h 07m
Length of Day
13h 12m
Tomorrow will be 2m 23s shorter.
Waxing Crescent, 5% of the Moon is Illuminated
Today
Waxing Crescent
Sep 2
First Quarter
Sep 8
Full
Sep 15
Last Quarter
Sep 24
New

Today's Extremes

State Highs State Lows

Community

WunderPhotos

Upload Photos

1,747,775 photos uploaded!

Nearby

Snow Depth

Station Depth Elevation
No new snow has been reported.

Earthquake Activity

City Distance Mag. Time & Date
No recent earthquake activity has been reported nearby.
Minimum magnitude displayed is 2.5.

Coastal Water Temperatures

Place Temperature
Ocean City Inlet, MD 77.0 °F
Lewes, DE 77.0 °F
Cape May, NJ 80.1 °F

Nearby Weather Stations